Time;durP1;ratioP1;P1;durP2;ratioP2;P2;SDS_P1;SDS_P2;PMS_P1;PMS_P2;Temp;Humidity;BMP_temperature;BMP_pressure;BME280_temperature;BME280_humidity;BME280_pressure;Samples;Min_cycle;Max_cycle;Signal;HPM_P1;HPM_P2
2022/04/25 00:01:24;;;;;;;14.35;8.02;;;8.80;99.90;;;;;;5071192;28;20111;-57
2022/04/25 00:03:50;;;;;;;12.93;7.90;;;8.80;99.90;;;;;;5071092;28;20071;-56
2022/04/25 00:06:15;;;;;;;17.40;8.13;;;8.90;99.90;;;;;;5071075;28;20072;-57
2022/04/25 00:08:42;;;;;;;14.77;7.07;;;8.80;99.90;;;;;;5071128;28;20098;-57
2022/04/25 00:11:08;;;;;;;11.88;7.07;;;8.80;99.90;;;;;;5071205;28;20511;-57
2022/04/25 00:13:33;;;;;;;12.98;6.88;;;8.80;99.90;;;;;;5069849;28;20423;-56
2022/04/25 00:16:00;;;;;;;16.00;7.32;;;8.80;99.90;;;;;;5071096;28;20048;-57
2022/04/25 00:18:26;;;;;;;12.27;6.20;;;8.80;99.90;;;;;;5070810;28;20114;-56
2022/04/25 00:20:51;;;;;;;12.82;6.45;;;8.80;99.90;;;;;;5070925;28;20825;-57
2022/04/25 00:23:17;;;;;;;16.83;6.93;;;8.90;99.90;;;;;;5059459;28;20183;-55
2022/04/25 00:25:43;;;;;;;17.88;7.55;;;8.80;99.90;;;;;;5050951;28;20087;-57
2022/04/25 00:28:08;;;;;;;15.57;7.28;;;8.80;99.90;;;;;;5051191;28;20110;-57
2022/04/25 00:30:34;;;;;;;13.95;7.50;;;8.90;99.90;;;;;;5050902;28;20335;-57
2022/04/25 00:33:01;;;;;;;13.23;7.00;;;8.80;99.90;;;;;;5050873;28;20033;-57
2022/04/25 00:35:27;;;;;;;13.60;7.18;;;8.80;99.90;;;;;;5051111;28;20068;-57
2022/04/25 00:37:53;;;;;;;11.85;6.88;;;8.80;99.90;;;;;;5050749;28;20045;-57
2022/04/25 00:40:21;;;;;;;15.05;7.18;;;8.90;99.90;;;;;;5052340;28;20112;-57
2022/04/25 00:42:47;;;;;;;13.45;7.57;;;8.90;99.90;;;;;;5054315;28;20037;-57
2022/04/25 00:45:14;;;;;;;13.55;7.88;;;8.90;99.90;;;;;;5072785;28;20125;-57
2022/04/25 00:47:40;;;;;;;14.45;7.85;;;8.90;99.90;;;;;;5074217;28;20052;-57
2022/04/25 00:50:08;;;;;;;14.18;7.60;;;8.90;99.90;;;;;;5074088;28;20044;-57
2022/04/25 00:52:34;;;;;;;14.02;7.35;;;8.80;99.90;;;;;;5074272;28;20089;-57
2022/04/25 00:55:03;;;;;;;16.48;7.35;;;8.80;99.90;;;;;;5074205;28;20068;-58
2022/04/25 00:57:30;;;;;;;16.13;7.13;;;8.80;99.90;;;;;;5074063;28;20036;-58
2022/04/25 00:59:57;;;;;;;12.32;7.00;;;8.90;99.90;;;;;;5074121;28;20032;-57
2022/04/25 01:02:27;;;;;;;16.42;7.75;;;8.90;99.90;;;;;;5073958;28;20040;-56
2022/04/25 01:04:56;;;;;;;13.05;7.13;;;8.80;99.90;;;;;;5074141;28;20124;-57
2022/04/25 01:07:22;;;;;;;15.25;7.35;;;8.90;99.90;;;;;;5073871;28;20036;-57
2022/04/25 01:09:47;;;;;;;14.82;7.28;;;8.70;99.90;;;;;;5073844;28;20132;-57
2022/04/25 01:12:13;;;;;;;15.40;6.93;;;8.80;99.90;;;;;;5073912;28;20062;-57
2022/04/25 01:14:39;;;;;;;13.88;7.43;;;8.80;99.90;;;;;;5073564;28;20036;-57
2022/04/25 01:17:05;;;;;;;17.92;8.15;;;8.80;99.90;;;;;;5073896;28;20040;-57
2022/04/25 01:19:31;;;;;;;13.85;6.90;;;8.70;99.90;;;;;;5073733;28;20041;-57
2022/04/25 01:22:01;;;;;;;14.80;7.55;;;8.70;99.90;;;;;;5072165;28;20464;-57
2022/04/25 01:27:16;;;;;;;15.15;7.10;;;8.70;99.90;;;;;;5053635;28;20102;-57
2022/04/25 01:29:47;;;;;;;13.57;7.72;;;8.70;99.90;;;;;;5053687;28;20386;-55
2022/04/25 01:32:14;;;;;;;13.40;7.32;;;8.70;99.90;;;;;;5053652;28;20044;-57
2022/04/25 01:34:41;;;;;;;13.32;7.35;;;8.70;99.90;;;;;;5053514;28;20073;-57
2022/04/25 01:37:08;;;;;;;16.58;7.85;;;8.70;99.90;;;;;;5053431;28;20040;-58
2022/04/25 01:39:40;;;;;;;17.73;7.72;;;8.80;99.90;;;;;;5053246;28;20072;-57
2022/04/25 01:42:07;;;;;;;13.98;7.20;;;8.80;99.90;;;;;;5053272;28;20374;-57
2022/04/25 01:44:34;;;;;;;15.13;7.05;;;8.80;99.90;;;;;;5066204;28;20056;-57
2022/04/25 01:47:00;;;;;;;14.38;7.95;;;8.80;99.90;;;;;;5073300;28;20037;-57
2022/04/25 01:49:26;;;;;;;16.70;7.80;;;8.80;99.90;;;;;;5073064;28;20503;-56
2022/04/25 01:51:52;;;;;;;15.45;7.78;;;8.80;99.90;;;;;;5072960;28;20399;-57
2022/04/25 01:54:25;;;;;;;14.80;7.88;;;8.80;99.90;;;;;;5072890;28;20052;-57
2022/04/25 01:56:52;;;;;;;15.02;7.22;;;8.80;99.90;;;;;;5073073;28;20044;-57
2022/04/25 01:59:18;;;;;;;14.05;7.07;;;8.80;99.90;;;;;;5073018;28;20052;-57
2022/04/25 02:01:44;;;;;;;15.20;7.10;;;8.80;99.90;;;;;;5072934;28;20128;-57
2022/04/25 02:04:09;;;;;;;13.85;7.38;;;8.80;99.90;;;;;;5072915;28;20389;-57
2022/04/25 02:06:35;;;;;;;13.70;8.05;;;8.90;99.90;;;;;;5073009;28;20369;-57
2022/04/25 02:09:01;;;;;;;13.85;7.47;;;8.90;99.90;;;;;;5072579;28;20093;-57
2022/04/25 02:11:27;;;;;;;16.30;7.90;;;8.80;99.90;;;;;;5072901;28;20473;-57
2022/04/25 02:13:53;;;;;;;17.23;8.85;;;8.80;99.90;;;;;;5072549;28;20036;-57
2022/04/25 02:16:20;;;;;;;19.48;8.18;;;8.80;99.90;;;;;;5071518;28;20051;-57
2022/04/25 02:18:45;;;;;;;15.23;8.07;;;8.70;99.90;;;;;;5072509;28;20044;-57
2022/04/25 02:21:12;;;;;;;15.13;8.63;;;8.70;99.90;;;;;;5072654;28;20040;-57
2022/04/25 02:23:38;;;;;;;14.30;7.75;;;8.70;99.90;;;;;;5056727;28;20393;-57
2022/04/25 02:26:07;;;;;;;21.02;8.23;;;8.70;99.90;;;;;;5051405;28;20167;-57
2022/04/25 02:28:34;;;;;;;15.00;8.63;;;8.70;99.90;;;;;;5052350;28;20049;-57
2022/04/25 02:31:01;;;;;;;17.73;8.80;;;8.70;99.90;;;;;;5052463;28;20045;-57
2022/04/25 02:33:27;;;;;;;15.25;7.45;;;8.80;99.90;;;;;;5052249;28;20073;-57
2022/04/25 02:35:54;;;;;;;13.23;7.63;;;8.70;99.90;;;;;;5067768;28;20460;-57
2022/04/25 02:38:20;;;;;;;16.98;7.88;;;8.80;99.90;;;;;;5052279;28;20056;-57
2022/04/25 02:40:45;;;;;;;12.85;6.70;;;8.70;99.90;;;;;;5052537;28;20409;-57
2022/04/25 02:43:11;;;;;;;14.48;7.22;;;8.70;99.90;;;;;;5054209;28;20043;-57
2022/04/25 02:45:37;;;;;;;14.27;6.72;;;8.70;99.90;;;;;;5071805;28;20048;-57
2022/04/25 02:48:03;;;;;;;17.05;7.50;;;8.80;99.90;;;;;;5071969;28;20051;-57
2022/04/25 02:50:29;;;;;;;14.23;7.25;;;8.60;99.90;;;;;;5070630;28;20056;-57
2022/04/25 02:52:54;;;;;;;14.27;6.63;;;8.60;99.90;;;;;;5071917;28;20040;-57
2022/04/25 02:55:21;;;;;;;12.32;7.07;;;8.60;99.90;;;;;;5070639;28;20041;-57
2022/04/25 02:57:46;;;;;;;16.08;7.38;;;8.60;99.90;;;;;;5071756;28;20044;-56
2022/04/25 03:00:13;;;;;;;12.70;6.75;;;8.60;99.90;;;;;;5071945;28;20043;-57
2022/04/25 03:02:39;;;;;;;13.02;7.10;;;8.60;99.90;;;;;;5071153;28;20064;-57
2022/04/25 03:05:05;;;;;;;13.45;7.15;;;8.70;99.90;;;;;;5071634;28;20083;-57
2022/04/25 03:07:31;;;;;;;13.70;6.07;;;8.70;99.90;;;;;;5071704;28;20052;-57
2022/04/25 03:09:57;;;;;;;14.27;6.78;;;8.60;99.90;;;;;;5071715;28;20040;-57
2022/04/25 03:12:23;;;;;;;10.55;6.25;;;8.50;99.90;;;;;;5071843;28;20057;-57
2022/04/25 03:14:48;;;;;;;13.10;7.07;;;8.50;99.90;;;;;;5071703;28;20481;-56
2022/04/25 03:17:14;;;;;;;12.57;6.50;;;8.60;99.90;;;;;;5071553;28;20044;-57
2022/04/25 03:19:40;;;;;;;16.77;6.68;;;8.50;99.90;;;;;;5071386;28;20048;-55
2022/04/25 03:22:06;;;;;;;12.15;6.35;;;8.60;99.90;;;;;;5069688;28;20032;-57
2022/04/25 03:24:32;;;;;;;11.73;5.97;;;8.60;99.90;;;;;;5051612;28;20040;-57
2022/04/25 03:26:58;;;;;;;12.95;6.50;;;8.60;99.90;;;;;;5051649;28;20482;-57
2022/04/25 03:29:24;;;;;;;13.65;6.57;;;8.50;99.90;;;;;;5050084;28;20562;-57
2022/04/25 03:31:50;;;;;;;12.32;6.38;;;8.50;99.90;;;;;;5051560;28;20037;-56
2022/04/25 03:34:16;;;;;;;11.90;6.43;;;8.50;99.90;;;;;;5051297;28;20067;-56
2022/04/25 03:36:45;;;;;;;12.80;6.78;;;8.60;99.90;;;;;;5051369;28;20102;-57
2022/04/25 03:39:11;;;;;;;16.15;7.75;;;8.60;99.90;;;;;;5051443;28;20052;-57
2022/04/25 03:41:36;;;;;;;11.68;6.53;;;8.50;99.90;;;;;;5066908;28;20041;-57
2022/04/25 03:44:03;;;;;;;14.43;6.95;;;8.60;99.90;;;;;;5060223;28;20036;-57
2022/04/25 03:46:30;;;;;;;14.82;7.95;;;8.50;99.90;;;;;;5071467;28;20048;-57
2022/04/25 03:48:56;;;;;;;17.10;7.55;;;8.60;99.90;;;;;;5071199;28;20524;-56
2022/04/25 03:51:23;;;;;;;13.88;7.13;;;8.50;99.90;;;;;;5071338;28;20162;-57
2022/04/25 03:53:48;;;;;;;17.25;7.47;;;8.50;99.90;;;;;;5071410;28;20033;-57
2022/04/25 03:58:59;;;;;;;12.05;6.95;;;8.50;99.90;;;;;;5070985;28;20040;-58
2022/04/25 04:01:25;;;;;;;13.48;6.72;;;8.40;99.90;;;;;;5071074;28;20120;-57
2022/04/25 04:03:51;;;;;;;12.52;6.53;;;8.40;99.90;;;;;;5070998;28;20123;-57
2022/04/25 04:06:17;;;;;;;13.18;6.97;;;8.40;99.90;;;;;;5071153;28;20032;-57
2022/04/25 04:08:42;;;;;;;14.48;6.80;;;8.40;99.90;;;;;;5071356;28;20040;-57
2022/04/25 04:11:08;;;;;;;14.60;7.10;;;8.30;99.90;;;;;;5071326;28;20041;-57
2022/04/25 04:13:34;;;;;;;13.80;7.15;;;8.30;99.90;;;;;;5071488;28;20496;-56
2022/04/25 04:16:00;;;;;;;13.45;7.07;;;8.40;99.90;;;;;;5074868;28;20053;-57
2022/04/25 04:18:26;;;;;;;12.98;7.88;;;8.30;99.90;;;;;;5074913;28;20048;-57
2022/04/25 04:20:52;;;;;;;14.98;7.47;;;8.30;99.90;;;;;;5073825;28;20089;-57
2022/04/25 04:23:18;;;;;;;15.32;7.97;;;8.30;99.90;;;;;;5063308;28;20481;-58
2022/04/25 04:25:44;;;;;;;12.02;7.10;;;8.40;99.90;;;;;;5070280;28;20599;-57
2022/04/25 04:28:09;;;;;;;15.30;7.20;;;8.40;99.90;;;;;;5054825;28;20116;-56
2022/04/25 04:30:36;;;;;;;13.57;7.80;;;8.40;99.90;;;;;;5054765;28;20052;-57
2022/04/25 04:33:02;;;;;;;17.25;8.18;;;8.40;99.90;;;;;;5054718;28;20041;-57
2022/04/25 04:38:12;;;;;;;17.35;8.13;;;8.40;99.90;;;;;;5054530;28;20051;-57
2022/04/25 04:40:38;;;;;;;15.30;8.32;;;8.30;99.90;;;;;;5069834;28;20036;-56
2022/04/25 04:43:04;;;;;;;14.38;8.07;;;8.30;99.90;;;;;;5055272;28;20037;-55
2022/04/25 04:45:30;;;;;;;15.43;7.65;;;8.30;99.90;;;;;;5074158;28;20052;-54
2022/04/25 04:47:56;;;;;;;16.13;8.05;;;8.30;99.90;;;;;;5074489;28;20052;-56
2022/04/25 04:50:22;;;;;;;12.00;7.97;;;8.30;99.90;;;;;;5074289;28;20448;-54
2022/04/25 04:52:50;;;;;;;15.77;7.78;;;8.40;99.90;;;;;;5074364;28;20107;-53
2022/04/25 04:55:16;;;;;;;12.38;7.90;;;8.30;99.90;;;;;;5073514;28;20044;-54
2022/04/25 04:57:42;;;;;;;17.33;8.13;;;8.40;99.90;;;;;;5072471;28;20044;-55
2022/04/25 05:00:10;;;;;;;14.05;8.38;;;8.40;99.90;;;;;;5072559;28;20104;-55
2022/04/25 05:02:36;;;;;;;13.85;8.30;;;8.40;99.90;;;;;;5071108;28;20047;-55
2022/04/25 05:05:03;;;;;;;16.77;9.38;;;8.50;99.90;;;;;;5071160;28;20040;-54
2022/04/25 05:07:29;;;;;;;16.83;8.98;;;8.50;99.90;;;;;;5072431;28;20043;-54
2022/04/25 05:09:55;;;;;;;16.30;9.55;;;8.50;99.90;;;;;;5072259;28;20036;-52
2022/04/25 05:12:20;;;;;;;13.68;8.35;;;8.40;99.90;;;;;;5070918;28;20041;-54
2022/04/25 05:14:46;;;;;;;14.98;9.38;;;8.40;99.90;;;;;;5072323;28;20119;-54
2022/04/25 05:17:12;;;;;;;16.02;9.05;;;8.50;99.90;;;;;;5072361;28;20049;-52
2022/04/25 05:19:38;;;;;;;15.48;9.05;;;8.50;99.90;;;;;;5072228;28;20055;-55
2022/04/25 05:22:04;;;;;;;13.63;8.90;;;8.50;99.90;;;;;;5070371;28;20045;-55
2022/04/25 05:24:30;;;;;;;19.35;9.02;;;8.50;99.90;;;;;;5052084;28;20108;-54
2022/04/25 05:26:55;;;;;;;15.00;9.10;;;8.50;99.90;;;;;;5051406;28;20108;-54
2022/04/25 05:29:21;;;;;;;19.42;9.52;;;8.50;99.90;;;;;;5052074;28;20068;-55
2022/04/25 05:31:49;;;;;;;16.60;9.23;;;8.50;99.90;;;;;;5052265;28;20344;-55
2022/04/25 05:34:15;;;;;;;16.27;9.20;;;8.50;99.90;;;;;;5051998;28;20116;-54
2022/04/25 05:36:41;;;;;;;16.90;9.70;;;8.50;99.90;;;;;;5052114;28;20056;-54
2022/04/25 05:39:08;;;;;;;15.25;9.75;;;8.50;99.90;;;;;;5051786;28;20112;-54
2022/04/25 05:41:35;;;;;;;16.25;9.55;;;8.50;99.90;;;;;;5051946;28;20106;-55
2022/04/25 05:44:02;;;;;;;16.52;9.27;;;8.50;99.90;;;;;;5060849;28;20051;-55
2022/04/25 05:46:27;;;;;;;17.63;9.93;;;8.60;99.90;;;;;;5072170;28;20045;-55
2022/04/25 05:54:22;;;;;;;14.70;8.98;;;8.40;99.90;;;;;;5071729;28;20118;-54
2022/04/25 05:56:48;;;;;;;16.73;9.45;;;8.50;99.90;;;;;;5070419;28;20458;-61
2022/04/25 05:59:13;;;;;;;14.68;8.80;;;8.40;99.90;;;;;;5071485;28;20097;-61
2022/04/25 06:01:39;;;;;;;14.20;8.23;;;8.40;99.90;;;;;;5069927;28;20098;-60
2022/04/25 06:04:04;;;;;;;15.10;8.55;;;8.40;99.90;;;;;;5071358;28;20084;-59
2022/04/25 06:06:31;;;;;;;15.98;8.20;;;8.50;99.90;;;;;;5071214;28;20033;-59
2022/04/25 06:08:57;;;;;;;14.52;7.97;;;8.50;99.90;;;;;;5071430;28;20076;-60
2022/04/25 06:11:22;;;;;;;13.18;6.97;;;8.40;99.90;;;;;;5071560;28;20083;-59
2022/04/25 06:13:50;;;;;;;17.35;7.35;;;8.40;99.90;;;;;;5071229;28;20036;-60
2022/04/25 06:16:16;;;;;;;13.98;6.95;;;8.50;99.90;;;;;;5071689;28;20045;-60
2022/04/25 06:18:42;;;;;;;15.25;7.13;;;8.60;99.90;;;;;;5071103;28;20041;-60
2022/04/25 06:21:08;;;;;;;13.38;6.45;;;8.60;99.90;;;;;;5071100;28;20060;-60
2022/04/25 06:23:33;;;;;;;12.85;6.47;;;8.60;99.90;;;;;;5057261;28;20444;-59
2022/04/25 06:25:59;;;;;;;11.43;6.15;;;8.60;99.90;;;;;;5051167;28;20029;-60
2022/04/25 06:28:25;;;;;;;12.55;7.05;;;8.60;99.90;;;;;;5051264;28;20146;-59
2022/04/25 06:30:51;;;;;;;10.98;6.63;;;8.60;99.90;;;;;;5050899;28;20398;-60
2022/04/25 06:33:17;;;;;;;11.60;6.40;;;8.60;99.90;;;;;;5050838;28;20037;-60
2022/04/25 06:35:48;;;;;;;12.38;6.68;;;8.60;99.90;;;;;;5050812;28;20049;-60
2022/04/25 06:38:15;;;;;;;14.13;6.78;;;8.60;99.90;;;;;;5049724;28;20045;-59
2022/04/25 06:40:42;;;;;;;11.93;7.10;;;8.70;99.90;;;;;;5050634;28;20049;-59
2022/04/25 06:43:09;;;;;;;13.60;6.85;;;8.80;99.90;;;;;;5052477;28;20508;-60
2022/04/25 06:45:35;;;;;;;12.13;6.97;;;8.70;99.90;;;;;;5070493;28;20049;-60
2022/04/25 06:48:01;;;;;;;14.52;6.07;;;8.60;99.90;;;;;;5070490;28;20044;-59
2022/04/25 06:50:26;;;;;;;12.68;6.22;;;8.70;99.90;;;;;;5068499;28;20040;-59
2022/04/25 06:52:53;;;;;;;13.30;6.85;;;8.70;99.90;;;;;;5070050;28;20078;-59
2022/04/25 06:55:19;;;;;;;13.88;6.40;;;8.70;99.90;;;;;;5069928;28;20040;-59
2022/04/25 06:57:47;;;;;;;12.30;6.07;;;8.70;99.90;;;;;;5070553;28;20036;-59
2022/04/25 07:00:17;;;;;;;13.50;6.70;;;8.60;99.90;;;;;;5070606;28;20067;-60
2022/04/25 07:02:47;;;;;;;13.27;6.05;;;8.80;99.90;;;;;;5070536;28;20040;-60
2022/04/25 07:05:12;;;;;;;13.23;6.47;;;8.80;99.90;;;;;;5070501;28;20037;-59
2022/04/25 07:07:38;;;;;;;13.85;7.20;;;8.80;99.90;;;;;;5069997;28;20032;-59
2022/04/25 07:10:05;;;;;;;12.45;6.95;;;8.90;99.90;;;;;;5069953;28;20040;-59
2022/04/25 07:12:31;;;;;;;15.85;6.70;;;8.90;99.90;;;;;;5070324;28;20135;-60
2022/04/25 07:14:57;;;;;;;14.27;6.85;;;8.80;99.90;;;;;;5070120;28;20155;-59
2022/04/25 07:17:23;;;;;;;12.50;6.47;;;8.90;99.90;;;;;;5070349;28;20070;-59
2022/04/25 07:19:48;;;;;;;11.30;6.10;;;8.90;99.90;;;;;;5070489;28;20449;-59
2022/04/25 07:30:27;;;;;;;14.60;7.18;;;9.10;99.90;;;;;;5050260;28;20542;-60
2022/04/25 07:32:55;;;;;;;13.82;6.88;;;9.10;99.90;;;;;;5050176;28;20067;-59
2022/04/25 07:35:21;;;;;;;13.88;6.22;;;9.20;99.90;;;;;;5050313;28;20044;-60
2022/04/25 07:37:47;;;;;;;14.30;7.05;;;9.20;99.90;;;;;;5050055;28;20539;-60
2022/04/25 07:40:13;;;;;;;13.52;6.28;;;9.30;99.90;;;;;;5050123;28;20041;-59
2022/04/25 07:42:39;;;;;;;11.68;6.13;;;9.20;99.90;;;;;;5048974;28;20478;-59
2022/04/25 07:45:06;;;;;;;12.77;6.15;;;9.20;99.90;;;;;;5065323;28;20061;-59
2022/04/25 07:47:33;;;;;;;10.90;5.45;;;9.30;99.90;;;;;;5049895;28;20083;-59
2022/04/25 07:50:00;;;;;;;11.35;5.57;;;9.30;99.90;;;;;;5052498;28;20152;-60
2022/04/25 07:52:25;;;;;;;10.70;5.22;;;9.30;99.90;;;;;;5054271;28;20041;-60
2022/04/25 07:54:56;;;;;;;11.80;5.20;;;9.40;99.90;;;;;;5052348;28;20520;-60
2022/04/25 07:57:21;;;;;;;8.93;4.55;;;9.40;99.90;;;;;;5052522;28;20160;-59
2022/04/25 07:59:47;;;;;;;11.13;5.18;;;9.30;99.90;;;;;;5053934;28;20127;-60
2022/04/25 08:02:17;;;;;;;10.35;4.72;;;9.30;99.90;;;;;;5053935;28;20051;-60
2022/04/25 08:04:45;;;;;;;9.98;4.78;;;9.30;99.90;;;;;;5054313;28;20097;-60
2022/04/25 08:07:11;;;;;;;7.82;4.22;;;9.30;99.90;;;;;;5053565;28;20068;-60
2022/04/25 08:09:37;;;;;;;9.95;4.65;;;9.40;99.90;;;;;;5053562;28;20545;-60
2022/04/25 08:20:16;;;;;;;10.32;4.60;;;9.60;99.90;;;;;;5052456;28;20048;-61
2022/04/25 08:22:42;;;;;;;9.88;4.93;;;9.70;99.90;;;;;;5052851;28;20041;-60
2022/04/25 08:25:09;;;;;;;10.80;5.13;;;9.80;99.90;;;;;;5054385;28;20465;-60
2022/04/25 08:27:35;;;;;;;12.65;5.22;;;9.80;99.90;;;;;;5054208;28;20082;-60
2022/04/25 08:30:00;;;;;;;9.60;5.13;;;9.90;99.90;;;;;;5054712;28;20116;-60
2022/04/25 08:32:26;;;;;;;10.82;4.90;;;10.00;99.90;;;;;;5054873;28;20140;-61
2022/04/25 08:34:52;;;;;;;10.07;5.57;;;10.10;99.90;;;;;;5055260;28;20048;-60
2022/04/25 08:37:17;;;;;;;10.10;4.90;;;10.10;99.90;;;;;;5054871;28;20124;-60
2022/04/25 08:39:43;;;;;;;9.48;5.47;;;10.10;99.90;;;;;;5054805;28;20040;-60
2022/04/25 08:42:09;;;;;;;10.73;5.57;;;10.10;99.90;;;;;;5054629;28;20116;-60
2022/04/25 08:44:37;;;;;;;8.57;4.75;;;10.10;99.90;;;;;;5067849;28;20064;-59
2022/04/25 08:47:04;;;;;;;9.73;4.68;;;10.20;99.90;;;;;;5074694;28;20051;-60
2022/04/25 08:49:31;;;;;;;8.85;4.50;;;10.20;99.90;;;;;;5074467;28;20055;-60
2022/04/25 08:51:58;;;;;;;9.02;4.88;;;10.20;99.90;;;;;;5074319;28;20090;-60
2022/04/25 08:54:32;;;;;;;9.60;4.32;;;10.20;99.90;;;;;;5074759;28;20374;-59
2022/04/25 08:56:59;;;;;;;13.82;5.10;;;10.20;99.90;;;;;;5074195;28;20561;-59
2022/04/25 08:59:26;;;;;;;10.43;4.65;;;10.30;99.90;;;;;;5074042;28;20374;-59
2022/04/25 09:01:53;;;;;;;11.57;4.70;;;10.50;99.90;;;;;;5073396;28;20060;-59
2022/04/25 09:04:20;;;;;;;8.63;4.47;;;10.60;99.90;;;;;;5074172;28;20119;-60
2022/04/25 09:06:47;;;;;;;11.35;4.72;;;10.80;99.90;;;;;;5074392;28;20051;-59
2022/04/25 09:09:13;;;;;;;10.82;4.68;;;10.90;99.90;;;;;;5074227;28;20045;-60
2022/04/25 09:14:24;;;;;;;11.02;5.10;;;11.00;99.90;;;;;;5074501;28;20086;-60
2022/04/25 09:16:50;;;;;;;9.95;4.05;;;11.10;99.90;;;;;;5074132;28;20527;-59
2022/04/25 09:19:15;;;;;;;9.30;3.95;;;11.10;99.90;;;;;;5073958;28;20056;-59
2022/04/25 09:21:44;;;;;;;9.05;4.47;;;11.10;99.90;;;;;;5074216;28;20037;-60
2022/04/25 09:24:20;;;;;;;8.05;3.88;;;11.10;99.90;;;;;;5055009;28;20052;-60
2022/04/25 09:26:46;;;;;;;9.68;4.00;;;11.20;99.90;;;;;;5054262;28;20091;-60
2022/04/25 09:29:12;;;;;;;6.90;3.50;;;11.20;99.90;;;;;;5054074;28;20076;-59
2022/04/25 09:31:47;;;;;;;9.55;3.50;;;11.20;99.90;;;;;;5054273;28;20124;-61
2022/04/25 09:34:16;;;;;;;9.85;3.80;;;11.30;99.90;;;;;;5053973;28;20049;-60
2022/04/25 09:36:48;;;;;;;9.32;4.07;;;11.30;99.90;;;;;;5054041;28;20444;-59
2022/04/25 09:39:32;;;;;;;10.98;4.20;;;11.30;99.90;;;;;;5053760;28;20044;-60
2022/04/25 09:42:00;;;;;;;10.18;3.42;;;11.40;99.90;;;;;;5053938;28;20409;-60
2022/04/25 09:44:27;;;;;;;9.10;3.88;;;11.40;99.90;;;;;;5065786;28;20053;-59
2022/04/25 09:46:52;;;;;;;10.98;3.80;;;11.40;99.90;;;;;;5073610;28;20037;-60
2022/04/25 09:49:20;;;;;;;9.27;4.05;;;11.40;99.90;;;;;;5072456;28;20048;-60
2022/04/25 09:52:00;;;;;;;11.68;4.07;;;11.40;99.90;;;;;;5073800;28;20037;-59
2022/04/25 09:54:25;;;;;;;8.38;3.80;;;11.40;99.90;;;;;;5073494;28;20044;-60
2022/04/25 09:56:51;;;;;;;9.63;4.45;;;11.50;99.90;;;;;;5073627;28;20047;-60
2022/04/25 09:59:18;;;;;;;8.95;3.90;;;11.70;99.90;;;;;;5073444;28;20123;-60
2022/04/25 10:01:45;;;;;;;12.05;4.57;;;11.70;99.90;;;;;;5072175;28;20040;-59
2022/04/25 10:04:31;;;;;;;9.93;4.07;;;11.70;99.90;;;;;;5073384;28;20102;-60
2022/04/25 10:07:03;;;;;;;8.00;3.70;;;11.80;99.90;;;;;;5073299;28;20033;-61
2022/04/25 10:09:31;;;;;;;10.27;4.38;;;12.00;99.90;;;;;;5073425;28;20195;-60
2022/04/25 10:12:02;;;;;;;9.40;3.78;;;12.00;99.90;;;;;;5072815;28;20141;-60
2022/04/25 10:14:29;;;;;;;6.93;3.67;;;12.10;99.90;;;;;;5072858;28;20044;-59
2022/04/25 10:16:58;;;;;;;6.85;3.42;;;12.30;99.90;;;;;;5072889;28;20127;-61
2022/04/25 10:19:25;;;;;;;7.78;4.15;;;12.50;99.90;;;;;;5072539;28;20044;-59
2022/04/25 10:21:52;;;;;;;10.57;3.63;;;12.60;99.90;;;;;;5072379;28;20484;-59
2022/04/25 10:24:19;;;;;;;10.90;3.75;;;12.90;99.90;;;;;;5072638;28;20037;-59
2022/04/25 10:26:46;;;;;;;9.55;3.97;;;12.80;99.90;;;;;;5072405;28;20050;-59
2022/04/25 10:29:17;;;;;;;10.27;3.67;;;12.90;99.90;;;;;;5072654;28;20075;-59
2022/04/25 10:31:45;;;;;;;6.90;3.27;;;13.20;99.90;;;;;;5072428;28;20074;-60
2022/04/25 10:34:14;;;;;;;8.23;3.60;;;13.40;99.90;;;;;;5072450;28;20068;-59
2022/04/25 10:36:39;;;;;;;9.88;4.25;;;13.30;99.90;;;;;;5072539;28;20033;-60
2022/04/25 10:39:22;;;;;;;8.07;3.75;;;13.10;99.90;;;;;;5072378;28;20507;-60
2022/04/25 10:44:44;;;;;;;8.75;3.47;;;12.80;99.90;;;;;;5057901;28;20531;-60
2022/04/25 10:47:14;;;;;;;8.02;3.53;;;12.80;99.90;;;;;;5052180;28;20052;-60
2022/04/25 10:49:42;;;;;;;7.93;3.70;;;12.90;99.90;;;;;;5052258;28;20092;-60
2022/04/25 10:55:38;;;;;;;9.45;3.95;;;13.20;99.90;;;;;;5052148;28;20051;-60
2022/04/25 10:58:04;;;;;;;8.98;4.05;;;13.10;99.90;;;;;;5050698;28;20047;-60
2022/04/25 11:00:36;;;;;;;7.00;3.70;;;12.70;99.90;;;;;;5051894;28;20075;-60
2022/04/25 11:03:12;;;;;;;9.02;3.60;;;12.70;99.90;;;;;;5051998;28;20477;-59
2022/04/25 11:05:39;;;;;;;8.88;3.80;;;12.60;99.90;;;;;;5051899;28;20104;-59
2022/04/25 11:08:20;;;;;;;12.70;4.43;;;12.60;99.90;;;;;;5051737;28;20043;-59
2022/04/25 11:10:57;;;;;;;9.00;3.85;;;12.60;99.90;;;;;;5051642;28;20044;-60
2022/04/25 11:13:33;;;;;;;10.40;5.13;;;12.60;99.90;;;;;;5052026;28;20047;-60
2022/04/25 11:16:18;;;;;;;9.52;4.05;;;12.30;99.90;;;;;;5051881;28;20045;-60
2022/04/25 11:18:45;;;;;;;11.70;4.10;;;12.30;99.90;;;;;;5051616;28;20041;-61
2022/04/25 11:21:15;;;;;;;9.90;4.53;;;12.30;99.90;;;;;;5051788;28;20098;-61
2022/04/25 11:23:43;;;;;;;8.95;3.75;;;12.20;99.90;;;;;;5051352;28;20056;-60
2022/04/25 11:26:30;;;;;;;15.52;4.53;;;12.30;99.90;;;;;;5051629;28;20497;-59
2022/04/25 11:28:58;;;;;;;10.18;4.07;;;12.30;99.90;;;;;;5050043;28;20091;-60
2022/04/25 11:31:25;;;;;;;10.52;4.60;;;12.30;99.90;;;;;;5051815;28;20049;-60
2022/04/25 11:33:53;;;;;;;12.23;5.28;;;12.40;99.90;;;;;;5051435;28;20163;-60
2022/04/25 11:36:20;;;;;;;10.85;4.75;;;12.50;99.90;;;;;;5051678;28;20120;-61
2022/04/25 11:41:33;;;;;;;11.40;5.22;;;12.30;99.90;;;;;;5050522;28;20083;-60
2022/04/25 11:43:59;;;;;;;10.30;3.95;;;12.30;99.90;;;;;;5059874;28;20047;-61
2022/04/25 11:46:26;;;;;;;11.52;4.45;;;12.30;99.90;;;;;;5071341;28;20041;-60
2022/04/25 11:48:53;;;;;;;10.52;4.40;;;12.30;99.90;;;;;;5071584;28;20116;-60
2022/04/25 11:51:29;;;;;;;10.15;4.10;;;12.30;99.90;;;;;;5070462;28;20044;-60
2022/04/25 11:54:01;;;;;;;7.65;4.10;;;12.20;99.90;;;;;;5071525;28;20098;-61
2022/04/25 11:56:28;;;;;;;10.57;4.13;;;12.20;99.90;;;;;;5071584;28;20044;-60
2022/04/25 11:58:56;;;;;;;10.75;4.50;;;12.30;99.90;;;;;;5071521;28;20094;-61
2022/04/25 12:01:42;;;;;;;10.20;4.80;;;12.20;99.90;;;;;;5071652;28;20075;-60
2022/04/25 12:04:15;;;;;;;10.98;4.10;;;12.10;99.90;;;;;;5071502;28;20455;-60
2022/04/25 12:06:50;;;;;;;9.07;4.30;;;12.00;99.90;;;;;;5071448;28;20045;-61
2022/04/25 12:18:21;;;;;;;9.05;4.40;;;12.10;99.90;;;;;;5048737;28;20400;-61
2022/04/25 12:21:00;;;;;;;10.15;4.68;;;12.00;99.90;;;;;;5048662;28;20400;-60
2022/04/25 12:23:28;;;;;;;8.43;4.30;;;12.00;99.90;;;;;;5037190;28;20045;-60
2022/04/25 12:25:54;;;;;;;8.45;4.30;;;12.00;99.90;;;;;;5031475;28;20072;-60
2022/04/25 12:28:26;;;;;;;10.18;3.85;;;11.90;99.90;;;;;;5031195;28;20080;-61
2022/04/25 12:30:55;;;;;;;10.32;3.90;;;11.90;99.90;;;;;;5046617;28;20520;-60
2022/04/25 12:33:32;;;;;;;8.65;3.92;;;12.00;99.90;;;;;;5029797;28;20096;-60
2022/04/25 12:36:18;;;;;;;10.15;4.20;;;11.90;99.90;;;;;;5031919;28;20042;-60
2022/04/25 12:39:00;;;;;;;13.55;4.72;;;12.00;99.90;;;;;;5034514;28;20053;-61
2022/04/25 12:41:34;;;;;;;9.55;4.45;;;12.00;99.90;;;;;;5034676;28;20044;-61
2022/04/25 12:44:11;;;;;;;10.25;4.07;;;12.10;99.90;;;;;;5050720;28;20068;-61
2022/04/25 12:46:42;;;;;;;10.27;4.07;;;12.10;99.90;;;;;;5074526;28;20036;-62
2022/04/25 12:49:13;;;;;;;10.27;4.63;;;12.20;99.90;;;;;;5074679;28;20043;-61
2022/04/25 12:51:51;;;;;;;12.93;4.32;;;12.30;99.90;;;;;;5074623;28;20044;-61
2022/04/25 12:54:22;;;;;;;11.20;4.53;;;12.30;99.90;;;;;;5074572;28;20076;-61
2022/04/25 12:56:50;;;;;;;11.43;5.25;;;12.50;99.90;;;;;;5074379;28;20048;-61
2022/04/25 12:59:27;;;;;;;10.85;4.25;;;12.60;99.90;;;;;;5074425;28;20122;-60
2022/04/25 13:02:01;;;;;;;9.90;4.55;;;12.90;99.90;;;;;;5074263;28;20060;-60
2022/04/25 13:04:27;;;;;;;10.38;5.00;;;13.20;99.90;;;;;;5074287;28;20370;-60
2022/04/25 13:06:53;;;;;;;10.95;4.55;;;13.40;99.90;;;;;;5072931;28;20046;-61
2022/04/25 13:09:19;;;;;;;10.25;4.32;;;13.50;99.90;;;;;;5074607;28;20040;-61
2022/04/25 13:11:44;;;;;;;9.63;4.68;;;13.80;99.90;;;;;;5072695;28;20078;-61
2022/04/25 13:14:10;;;;;;;9.02;4.03;;;14.00;99.90;;;;;;5074399;28;20040;-61
2022/04/25 13:16:36;;;;;;;9.18;3.88;;;14.00;99.90;;;;;;5073957;28;20433;-61
2022/04/25 13:19:02;;;;;;;11.05;4.55;;;14.00;99.90;;;;;;5074010;28;20151;-61
2022/04/25 13:21:27;;;;;;;9.70;4.18;;;14.10;99.90;;;;;;5073889;28;20051;-61
2022/04/25 13:23:54;;;;;;;10.38;4.32;;;14.00;99.90;;;;;;5055847;28;20045;-61
2022/04/25 13:26:21;;;;;;;10.82;4.50;;;14.00;99.90;;;;;;5053783;28;20041;-60
2022/04/25 13:28:46;;;;;;;11.20;5.03;;;13.80;99.90;;;;;;5053958;28;20043;-62
2022/04/25 13:31:14;;;;;;;10.88;4.63;;;13.60;99.90;;;;;;5053733;28;20482;-62
2022/04/25 13:33:40;;;;;;;7.93;4.28;;;13.60;99.90;;;;;;5053758;28;20041;-58
2022/04/25 13:36:06;;;;;;;9.82;4.90;;;13.80;99.90;;;;;;5053575;28;20485;-59
2022/04/25 13:38:35;;;;;;;15.93;5.00;;;13.60;99.90;;;;;;5052168;28;20048;-60